Terminal Aerodrome Forecast
Issued by NWS

Home | Current Version | Previous Version | Text Only | Print | Product List | Glossary On
Versions: 1 2 3 4 5 6 7 8 9 10 11 12 13 14 15 16 17
000
FTUS43 KGRR 010600 AAA
TAFJXN
TAF AMD
KJXN 010656Z 0107/0206 36014G22KT P6SM SCT025 BKN035
     FM011300 36011KT P6SM FEW035
     FM012300 VRB03KT P6SM SKC=

USA.gov is the U.S. government's official web portal to all federal, state and local government web resources and services.